sensor_id;sensor_type;location;lat;lon;timestamp;P1;durP1;ratioP1;P2;durP2;ratioP2
15297;SDS011;7750;48.796;9.026;2023-05-27T00:04:04;6.93;;;4.10;;
15297;SDS011;7750;48.796;9.026;2023-05-27T00:09:05;8.03;;;4.07;;
15297;SDS011;7750;48.796;9.026;2023-05-27T00:14:05;6.00;;;3.60;;
15297;SDS011;7750;48.796;9.026;2023-05-27T00:19:06;7.63;;;3.87;;
15297;SDS011;7750;48.796;9.026;2023-05-27T00:24:07;8.67;;;3.93;;
15297;SDS011;7750;48.796;9.026;2023-05-27T00:29:08;8.60;;;4.23;;
15297;SDS011;7750;48.796;9.026;2023-05-27T00:34:09;8.03;;;3.90;;
15297;SDS011;7750;48.796;9.026;2023-05-27T00:39:09;11.80;;;4.00;;
15297;SDS011;7750;48.796;9.026;2023-05-27T00:44:10;14.40;;;4.10;;
15297;SDS011;7750;48.796;9.026;2023-05-27T00:49:11;10.70;;;4.20;;
15297;SDS011;7750;48.796;9.026;2023-05-27T00:54:12;10.07;;;3.53;;
15297;SDS011;7750;48.796;9.026;2023-05-27T00:59:13;12.13;;;4.20;;
15297;SDS011;7750;48.796;9.026;2023-05-27T01:04:14;14.27;;;5.20;;
15297;SDS011;7750;48.796;9.026;2023-05-27T01:14:21;7.57;;;3.53;;
15297;SDS011;7750;48.796;9.026;2023-05-27T01:19:30;10.00;;;4.10;;
15297;SDS011;7750;48.796;9.026;2023-05-27T01:24:33;7.83;;;4.00;;
15297;SDS011;7750;48.796;9.026;2023-05-27T01:29:34;7.47;;;3.57;;
15297;SDS011;7750;48.796;9.026;2023-05-27T01:34:44;8.40;;;3.80;;
15297;SDS011;7750;48.796;9.026;2023-05-27T01:39:52;13.23;;;4.17;;
15297;SDS011;7750;48.796;9.026;2023-05-27T01:44:54;6.67;;;3.67;;
15297;SDS011;7750;48.796;9.026;2023-05-27T01:49:56;11.20;;;4.30;;
15297;SDS011;7750;48.796;9.026;2023-05-27T01:54:57;7.67;;;3.50;;
15297;SDS011;7750;48.796;9.026;2023-05-27T01:59:57;8.33;;;3.60;;
15297;SDS011;7750;48.796;9.026;2023-05-27T02:04:58;17.23;;;4.27;;
15297;SDS011;7750;48.796;9.026;2023-05-27T02:09:59;8.63;;;3.73;;
15297;SDS011;7750;48.796;9.026;2023-05-27T02:14:59;8.77;;;4.40;;
15297;SDS011;7750;48.796;9.026;2023-05-27T02:20:00;9.27;;;3.67;;
15297;SDS011;7750;48.796;9.026;2023-05-27T02:25:01;7.07;;;3.83;;
15297;SDS011;7750;48.796;9.026;2023-05-27T02:30:01;7.83;;;4.70;;
15297;SDS011;7750;48.796;9.026;2023-05-27T02:35:05;11.93;;;4.33;;
15297;SDS011;7750;48.796;9.026;2023-05-27T02:40:07;9.60;;;4.23;;
15297;SDS011;7750;48.796;9.026;2023-05-27T02:45:09;6.80;;;4.00;;
15297;SDS011;7750;48.796;9.026;2023-05-27T02:50:10;7.50;;;3.70;;
15297;SDS011;7750;48.796;9.026;2023-05-27T02:55:10;8.10;;;4.57;;
15297;SDS011;7750;48.796;9.026;2023-05-27T03:00:11;9.00;;;4.10;;
15297;SDS011;7750;48.796;9.026;2023-05-27T03:05:14;9.60;;;4.60;;
15297;SDS011;7750;48.796;9.026;2023-05-27T03:10:15;9.77;;;4.27;;
15297;SDS011;7750;48.796;9.026;2023-05-27T03:15:16;9.27;;;4.50;;
15297;SDS011;7750;48.796;9.026;2023-05-27T03:20:16;11.93;;;5.03;;
15297;SDS011;7750;48.796;9.026;2023-05-27T03:25:18;12.00;;;4.37;;
15297;SDS011;7750;48.796;9.026;2023-05-27T03:30:19;11.20;;;4.60;;
15297;SDS011;7750;48.796;9.026;2023-05-27T03:35:20;9.93;;;4.27;;
15297;SDS011;7750;48.796;9.026;2023-05-27T03:40:21;11.20;;;4.90;;
15297;SDS011;7750;48.796;9.026;2023-05-27T03:45:22;9.97;;;4.90;;
15297;SDS011;7750;48.796;9.026;2023-05-27T03:50:22;6.43;;;3.70;;
15297;SDS011;7750;48.796;9.026;2023-05-27T03:55:23;7.97;;;4.50;;
15297;SDS011;7750;48.796;9.026;2023-05-27T04:00:23;10.33;;;4.57;;
15297;SDS011;7750;48.796;9.026;2023-05-27T04:05:28;9.83;;;4.80;;
15297;SDS011;7750;48.796;9.026;2023-05-27T04:10:28;9.03;;;4.30;;
15297;SDS011;7750;48.796;9.026;2023-05-27T04:15:29;6.77;;;3.53;;
15297;SDS011;7750;48.796;9.026;2023-05-27T04:20:37;10.80;;;4.30;;
15297;SDS011;7750;48.796;9.026;2023-05-27T04:25:40;7.70;;;4.10;;
15297;SDS011;7750;48.796;9.026;2023-05-27T04:30:41;11.37;;;4.60;;
15297;SDS011;7750;48.796;9.026;2023-05-27T04:35:41;11.53;;;4.40;;
15297;SDS011;7750;48.796;9.026;2023-05-27T04:40:43;13.47;;;4.90;;
15297;SDS011;7750;48.796;9.026;2023-05-27T04:45:45;8.47;;;4.63;;
15297;SDS011;7750;48.796;9.026;2023-05-27T04:50:46;10.53;;;4.20;;
15297;SDS011;7750;48.796;9.026;2023-05-27T04:55:48;11.90;;;4.90;;
15297;SDS011;7750;48.796;9.026;2023-05-27T05:00:49;10.87;;;4.00;;
15297;SDS011;7750;48.796;9.026;2023-05-27T05:05:52;11.70;;;4.77;;
15297;SDS011;7750;48.796;9.026;2023-05-27T05:10:53;8.70;;;4.23;;
15297;SDS011;7750;48.796;9.026;2023-05-27T05:15:54;12.73;;;4.73;;
15297;SDS011;7750;48.796;9.026;2023-05-27T05:20:55;12.00;;;4.20;;
15297;SDS011;7750;48.796;9.026;2023-05-27T05:25:55;15.60;;;5.27;;
15297;SDS011;7750;48.796;9.026;2023-05-27T05:30:58;12.93;;;5.00;;
15297;SDS011;7750;48.796;9.026;2023-05-27T05:35:59;11.23;;;4.03;;
15297;SDS011;7750;48.796;9.026;2023-05-27T05:41:01;11.80;;;4.67;;
15297;SDS011;7750;48.796;9.026;2023-05-27T05:46:01;15.03;;;4.77;;
15297;SDS011;7750;48.796;9.026;2023-05-27T05:51:02;11.30;;;4.27;;
15297;SDS011;7750;48.796;9.026;2023-05-27T05:56:03;13.23;;;4.67;;
15297;SDS011;7750;48.796;9.026;2023-05-27T06:01:04;10.47;;;4.50;;
15297;SDS011;7750;48.796;9.026;2023-05-27T06:06:05;10.17;;;5.00;;
15297;SDS011;7750;48.796;9.026;2023-05-27T06:11:06;14.13;;;5.30;;
15297;SDS011;7750;48.796;9.026;2023-05-27T06:16:07;17.50;;;6.43;;
15297;SDS011;7750;48.796;9.026;2023-05-27T06:21:08;14.43;;;5.17;;
15297;SDS011;7750;48.796;9.026;2023-05-27T06:26:08;10.90;;;5.30;;
15297;SDS011;7750;48.796;9.026;2023-05-27T06:31:11;10.07;;;4.83;;
15297;SDS011;7750;48.796;9.026;2023-05-27T06:36:12;15.47;;;5.60;;
15297;SDS011;7750;48.796;9.026;2023-05-27T06:41:12;16.87;;;4.93;;
15297;SDS011;7750;48.796;9.026;2023-05-27T06:46:13;24.33;;;5.97;;
15297;SDS011;7750;48.796;9.026;2023-05-27T06:51:14;14.30;;;4.80;;
15297;SDS011;7750;48.796;9.026;2023-05-27T06:56:15;12.00;;;4.70;;
15297;SDS011;7750;48.796;9.026;2023-05-27T07:01:16;12.53;;;5.00;;
15297;SDS011;7750;48.796;9.026;2023-05-27T07:06:16;9.87;;;4.50;;
15297;SDS011;7750;48.796;9.026;2023-05-27T07:11:18;15.97;;;4.50;;
15297;SDS011;7750;48.796;9.026;2023-05-27T07:16:18;12.07;;;4.60;;
15297;SDS011;7750;48.796;9.026;2023-05-27T07:21:19;14.67;;;4.40;;
15297;SDS011;7750;48.796;9.026;2023-05-27T07:26:20;9.83;;;4.43;;
15297;SDS011;7750;48.796;9.026;2023-05-27T07:31:20;11.77;;;5.07;;
15297;SDS011;7750;48.796;9.026;2023-05-27T07:36:21;17.13;;;5.00;;
15297;SDS011;7750;48.796;9.026;2023-05-27T07:41:22;12.20;;;4.80;;
15297;SDS011;7750;48.796;9.026;2023-05-27T07:46:26;11.07;;;4.90;;
15297;SDS011;7750;48.796;9.026;2023-05-27T07:51:26;11.90;;;5.03;;
15297;SDS011;7750;48.796;9.026;2023-05-27T07:56:27;12.43;;;5.03;;
15297;SDS011;7750;48.796;9.026;2023-05-27T08:01:28;14.17;;;4.97;;
15297;SDS011;7750;48.796;9.026;2023-05-27T08:06:32;11.00;;;4.73;;
15297;SDS011;7750;48.796;9.026;2023-05-27T08:11:32;10.03;;;4.70;;
15297;SDS011;7750;48.796;9.026;2023-05-27T08:16:33;13.60;;;4.63;;
15297;SDS011;7750;48.796;9.026;2023-05-27T08:21:37;9.40;;;4.43;;
15297;SDS011;7750;48.796;9.026;2023-05-27T08:26:37;12.50;;;4.80;;
15297;SDS011;7750;48.796;9.026;2023-05-27T08:31:38;14.40;;;5.73;;
15297;SDS011;7750;48.796;9.026;2023-05-27T08:36:40;12.60;;;4.73;;
15297;SDS011;7750;48.796;9.026;2023-05-27T08:41:40;10.77;;;4.37;;
15297;SDS011;7750;48.796;9.026;2023-05-27T08:46:41;15.40;;;6.67;;
15297;SDS011;7750;48.796;9.026;2023-05-27T08:51:42;11.83;;;4.53;;
15297;SDS011;7750;48.796;9.026;2023-05-27T08:56:45;11.47;;;4.63;;
15297;SDS011;7750;48.796;9.026;2023-05-27T09:01:49;10.37;;;5.00;;
15297;SDS011;7750;48.796;9.026;2023-05-27T09:06:50;10.13;;;5.20;;
15297;SDS011;7750;48.796;9.026;2023-05-27T09:11:51;14.57;;;5.60;;
15297;SDS011;7750;48.796;9.026;2023-05-27T09:16:51;8.87;;;5.43;;
15297;SDS011;7750;48.796;9.026;2023-05-27T09:21:52;13.87;;;6.30;;
15297;SDS011;7750;48.796;9.026;2023-05-27T09:26:53;11.97;;;5.33;;
15297;SDS011;7750;48.796;9.026;2023-05-27T09:31:55;10.73;;;5.23;;
15297;SDS011;7750;48.796;9.026;2023-05-27T09:36:56;9.50;;;4.90;;
15297;SDS011;7750;48.796;9.026;2023-05-27T09:41:57;10.93;;;5.27;;
15297;SDS011;7750;48.796;9.026;2023-05-27T09:46:59;11.30;;;5.47;;
15297;SDS011;7750;48.796;9.026;2023-05-27T09:52:02;12.50;;;6.07;;
15297;SDS011;7750;48.796;9.026;2023-05-27T09:57:04;12.50;;;5.30;;
15297;SDS011;7750;48.796;9.026;2023-05-27T10:02:06;10.60;;;5.53;;
15297;SDS011;7750;48.796;9.026;2023-05-27T10:07:08;9.90;;;5.33;;
15297;SDS011;7750;48.796;9.026;2023-05-27T10:12:09;14.83;;;5.70;;
15297;SDS011;7750;48.796;9.026;2023-05-27T10:17:11;16.23;;;5.93;;
15297;SDS011;7750;48.796;9.026;2023-05-27T10:22:12;13.23;;;5.77;;
15297;SDS011;7750;48.796;9.026;2023-05-27T10:27:12;10.70;;;6.20;;
15297;SDS011;7750;48.796;9.026;2023-05-27T10:32:13;14.20;;;4.77;;
15297;SDS011;7750;48.796;9.026;2023-05-27T10:37:21;16.07;;;6.27;;
15297;SDS011;7750;48.796;9.026;2023-05-27T10:42:22;14.83;;;5.67;;
15297;SDS011;7750;48.796;9.026;2023-05-27T10:47:28;11.97;;;6.20;;
15297;SDS011;7750;48.796;9.026;2023-05-27T10:52:28;7.47;;;4.73;;
15297;SDS011;7750;48.796;9.026;2023-05-27T10:57:33;10.10;;;5.53;;
15297;SDS011;7750;48.796;9.026;2023-05-27T11:02:35;12.43;;;6.20;;
15297;SDS011;7750;48.796;9.026;2023-05-27T11:07:38;11.27;;;5.30;;
15297;SDS011;7750;48.796;9.026;2023-05-27T11:12:43;10.37;;;5.90;;
15297;SDS011;7750;48.796;9.026;2023-05-27T11:17:45;10.57;;;6.10;;
15297;SDS011;7750;48.796;9.026;2023-05-27T11:22:49;11.97;;;6.40;;
15297;SDS011;7750;48.796;9.026;2023-05-27T11:27:51;10.93;;;6.03;;
15297;SDS011;7750;48.796;9.026;2023-05-27T11:32:51;10.37;;;6.40;;
15297;SDS011;7750;48.796;9.026;2023-05-27T11:37:52;11.70;;;7.10;;
15297;SDS011;7750;48.796;9.026;2023-05-27T11:42:53;8.90;;;5.80;;
15297;SDS011;7750;48.796;9.026;2023-05-27T11:48:00;10.77;;;5.57;;
15297;SDS011;7750;48.796;9.026;2023-05-27T11:53:03;10.20;;;5.03;;
15297;SDS011;7750;48.796;9.026;2023-05-27T11:58:04;12.27;;;5.57;;
15297;SDS011;7750;48.796;9.026;2023-05-27T12:03:04;9.60;;;5.50;;
15297;SDS011;7750;48.796;9.026;2023-05-27T12:08:05;7.93;;;5.17;;
15297;SDS011;7750;48.796;9.026;2023-05-27T12:13:06;10.30;;;5.27;;
15297;SDS011;7750;48.796;9.026;2023-05-27T12:18:06;11.63;;;5.37;;
15297;SDS011;7750;48.796;9.026;2023-05-27T12:23:07;8.30;;;5.13;;
15297;SDS011;7750;48.796;9.026;2023-05-27T12:28:08;10.47;;;5.70;;
15297;SDS011;7750;48.796;9.026;2023-05-27T12:33:09;8.10;;;5.43;;
15297;SDS011;7750;48.796;9.026;2023-05-27T12:38:10;12.70;;;6.27;;
15297;SDS011;7750;48.796;9.026;2023-05-27T12:43:10;9.13;;;5.80;;
15297;SDS011;7750;48.796;9.026;2023-05-27T12:48:12;16.67;;;5.80;;
15297;SDS011;7750;48.796;9.026;2023-05-27T12:53:12;14.93;;;5.87;;
15297;SDS011;7750;48.796;9.026;2023-05-27T12:58:13;8.23;;;5.77;;
15297;SDS011;7750;48.796;9.026;2023-05-27T13:03:14;13.57;;;6.27;;
15297;SDS011;7750;48.796;9.026;2023-05-27T13:08:15;12.77;;;6.43;;
15297;SDS011;7750;48.796;9.026;2023-05-27T13:13:15;10.67;;;5.73;;
15297;SDS011;7750;48.796;9.026;2023-05-27T13:18:16;9.10;;;5.97;;
15297;SDS011;7750;48.796;9.026;2023-05-27T13:23:16;9.37;;;5.87;;
15297;SDS011;7750;48.796;9.026;2023-05-27T13:28:17;10.20;;;6.73;;
15297;SDS011;7750;48.796;9.026;2023-05-27T13:33:18;11.20;;;6.10;;
15297;SDS011;7750;48.796;9.026;2023-05-27T13:38:19;10.50;;;6.30;;
15297;SDS011;7750;48.796;9.026;2023-05-27T13:43:19;9.10;;;5.33;;
15297;SDS011;7750;48.796;9.026;2023-05-27T13:48:20;10.77;;;5.87;;
15297;SDS011;7750;48.796;9.026;2023-05-27T13:53:21;9.33;;;5.80;;
15297;SDS011;7750;48.796;9.026;2023-05-27T13:58:21;13.37;;;6.50;;
15297;SDS011;7750;48.796;9.026;2023-05-27T14:03:22;20.67;;;6.87;;
15297;SDS011;7750;48.796;9.026;2023-05-27T14:08:22;8.70;;;5.30;;
15297;SDS011;7750;48.796;9.026;2023-05-27T14:13:23;10.50;;;5.80;;
15297;SDS011;7750;48.796;9.026;2023-05-27T14:18:24;9.60;;;5.57;;
15297;SDS011;7750;48.796;9.026;2023-05-27T14:23:24;11.47;;;6.10;;
15297;SDS011;7750;48.796;9.026;2023-05-27T14:28:25;8.43;;;5.17;;
15297;SDS011;7750;48.796;9.026;2023-05-27T14:33:26;12.13;;;5.13;;
15297;SDS011;7750;48.796;9.026;2023-05-27T14:38:26;14.93;;;5.90;;
15297;SDS011;7750;48.796;9.026;2023-05-27T14:43:27;11.30;;;5.80;;
15297;SDS011;7750;48.796;9.026;2023-05-27T14:48:27;8.47;;;5.03;;
15297;SDS011;7750;48.796;9.026;2023-05-27T14:53:28;8.40;;;4.77;;
15297;SDS011;7750;48.796;9.026;2023-05-27T14:58:29;12.53;;;5.03;;
15297;SDS011;7750;48.796;9.026;2023-05-27T15:03:29;8.37;;;4.80;;
15297;SDS011;7750;48.796;9.026;2023-05-27T15:08:30;10.73;;;4.33;;
15297;SDS011;7750;48.796;9.026;2023-05-27T15:13:31;9.27;;;5.13;;
15297;SDS011;7750;48.796;9.026;2023-05-27T15:18:31;9.10;;;4.40;;
15297;SDS011;7750;48.796;9.026;2023-05-27T15:23:33;9.13;;;4.30;;
15297;SDS011;7750;48.796;9.026;2023-05-27T15:28:33;6.87;;;3.77;;
15297;SDS011;7750;48.796;9.026;2023-05-27T15:33:34;7.10;;;4.17;;
15297;SDS011;7750;48.796;9.026;2023-05-27T15:38:35;7.83;;;4.20;;
15297;SDS011;7750;48.796;9.026;2023-05-27T15:43:36;9.80;;;3.70;;
15297;SDS011;7750;48.796;9.026;2023-05-27T15:48:36;8.47;;;3.17;;
15297;SDS011;7750;48.796;9.026;2023-05-27T15:53:37;9.03;;;4.23;;
15297;SDS011;7750;48.796;9.026;2023-05-27T15:58:38;6.40;;;3.60;;
15297;SDS011;7750;48.796;9.026;2023-05-27T16:03:38;7.70;;;3.40;;
15297;SDS011;7750;48.796;9.026;2023-05-27T16:08:39;8.53;;;3.90;;
15297;SDS011;7750;48.796;9.026;2023-05-27T16:13:39;11.73;;;3.90;;
15297;SDS011;7750;48.796;9.026;2023-05-27T16:18:40;5.80;;;3.07;;
15297;SDS011;7750;48.796;9.026;2023-05-27T16:23:40;7.67;;;3.90;;
15297;SDS011;7750;48.796;9.026;2023-05-27T16:28:41;9.77;;;4.83;;
15297;SDS011;7750;48.796;9.026;2023-05-27T16:33:43;8.57;;;3.93;;
15297;SDS011;7750;48.796;9.026;2023-05-27T16:38:43;7.50;;;3.50;;
15297;SDS011;7750;48.796;9.026;2023-05-27T16:43:44;9.47;;;3.60;;
15297;SDS011;7750;48.796;9.026;2023-05-27T16:48:45;9.47;;;4.10;;
15297;SDS011;7750;48.796;9.026;2023-05-27T16:53:45;6.60;;;3.23;;
15297;SDS011;7750;48.796;9.026;2023-05-27T16:58:46;6.57;;;3.37;;
15297;SDS011;7750;48.796;9.026;2023-05-27T17:03:47;7.07;;;3.20;;
15297;SDS011;7750;48.796;9.026;2023-05-27T17:08:47;6.17;;;3.90;;
15297;SDS011;7750;48.796;9.026;2023-05-27T17:13:48;6.63;;;4.00;;
15297;SDS011;7750;48.796;9.026;2023-05-27T17:18:49;9.30;;;4.50;;
15297;SDS011;7750;48.796;9.026;2023-05-27T17:23:49;7.70;;;3.37;;
15297;SDS011;7750;48.796;9.026;2023-05-27T17:28:51;9.33;;;4.20;;
15297;SDS011;7750;48.796;9.026;2023-05-27T17:33:53;7.00;;;3.80;;
15297;SDS011;7750;48.796;9.026;2023-05-27T17:38:53;5.73;;;3.50;;
15297;SDS011;7750;48.796;9.026;2023-05-27T17:43:54;10.63;;;4.97;;
15297;SDS011;7750;48.796;9.026;2023-05-27T17:48:55;8.57;;;4.10;;
15297;SDS011;7750;48.796;9.026;2023-05-27T17:53:55;7.10;;;4.13;;
15297;SDS011;7750;48.796;9.026;2023-05-27T17:58:56;10.73;;;3.87;;
15297;SDS011;7750;48.796;9.026;2023-05-27T18:03:57;10.33;;;3.93;;
15297;SDS011;7750;48.796;9.026;2023-05-27T18:08:57;6.77;;;4.27;;
15297;SDS011;7750;48.796;9.026;2023-05-27T18:13:58;6.07;;;3.97;;
15297;SDS011;7750;48.796;9.026;2023-05-27T18:18:59;9.40;;;4.40;;
15297;SDS011;7750;48.796;9.026;2023-05-27T18:23:59;7.60;;;4.07;;
15297;SDS011;7750;48.796;9.026;2023-05-27T18:29:00;7.87;;;3.77;;
15297;SDS011;7750;48.796;9.026;2023-05-27T18:34:01;9.37;;;4.80;;
15297;SDS011;7750;48.796;9.026;2023-05-27T18:39:01;10.13;;;4.10;;
15297;SDS011;7750;48.796;9.026;2023-05-27T18:44:02;8.37;;;4.10;;
15297;SDS011;7750;48.796;9.026;2023-05-27T18:49:03;11.50;;;4.40;;
15297;SDS011;7750;48.796;9.026;2023-05-27T18:54:04;13.80;;;7.03;;
15297;SDS011;7750;48.796;9.026;2023-05-27T18:59:05;8.80;;;4.77;;
15297;SDS011;7750;48.796;9.026;2023-05-27T19:04:06;9.17;;;4.53;;
15297;SDS011;7750;48.796;9.026;2023-05-27T19:09:07;8.57;;;5.37;;
15297;SDS011;7750;48.796;9.026;2023-05-27T19:14:07;8.00;;;3.83;;
15297;SDS011;7750;48.796;9.026;2023-05-27T19:19:08;7.63;;;4.03;;
15297;SDS011;7750;48.796;9.026;2023-05-27T19:24:08;7.70;;;3.90;;
15297;SDS011;7750;48.796;9.026;2023-05-27T19:29:09;9.73;;;4.30;;
15297;SDS011;7750;48.796;9.026;2023-05-27T19:34:10;7.93;;;4.57;;
15297;SDS011;7750;48.796;9.026;2023-05-27T19:39:10;10.53;;;4.67;;
15297;SDS011;7750;48.796;9.026;2023-05-27T19:44:11;7.23;;;4.70;;
15297;SDS011;7750;48.796;9.026;2023-05-27T19:49:12;5.57;;;3.60;;
15297;SDS011;7750;48.796;9.026;2023-05-27T19:54:12;7.40;;;3.67;;
15297;SDS011;7750;48.796;9.026;2023-05-27T19:59:13;8.57;;;4.10;;
15297;SDS011;7750;48.796;9.026;2023-05-27T20:04:15;10.83;;;3.97;;
15297;SDS011;7750;48.796;9.026;2023-05-27T20:09:15;7.67;;;3.60;;
15297;SDS011;7750;48.796;9.026;2023-05-27T20:14:16;8.80;;;3.90;;
15297;SDS011;7750;48.796;9.026;2023-05-27T20:19:17;5.50;;;3.90;;
15297;SDS011;7750;48.796;9.026;2023-05-27T20:24:17;6.47;;;3.80;;
15297;SDS011;7750;48.796;9.026;2023-05-27T20:29:18;6.90;;;3.47;;
15297;SDS011;7750;48.796;9.026;2023-05-27T20:34:19;9.60;;;4.13;;
15297;SDS011;7750;48.796;9.026;2023-05-27T20:39:20;7.10;;;4.17;;
15297;SDS011;7750;48.796;9.026;2023-05-27T20:44:20;8.97;;;4.50;;
15297;SDS011;7750;48.796;9.026;2023-05-27T20:49:21;8.90;;;4.43;;
15297;SDS011;7750;48.796;9.026;2023-05-27T20:54:21;9.73;;;3.90;;
15297;SDS011;7750;48.796;9.026;2023-05-27T20:59:22;11.70;;;4.70;;
15297;SDS011;7750;48.796;9.026;2023-05-27T21:04:23;6.47;;;3.63;;
15297;SDS011;7750;48.796;9.026;2023-05-27T21:09:23;7.47;;;4.30;;
15297;SDS011;7750;48.796;9.026;2023-05-27T21:14:24;10.60;;;4.40;;
15297;SDS011;7750;48.796;9.026;2023-05-27T21:19:25;8.30;;;3.70;;
15297;SDS011;7750;48.796;9.026;2023-05-27T21:24:25;6.97;;;3.60;;
15297;SDS011;7750;48.796;9.026;2023-05-27T21:29:26;6.07;;;3.97;;
15297;SDS011;7750;48.796;9.026;2023-05-27T21:34:27;6.40;;;4.10;;
15297;SDS011;7750;48.796;9.026;2023-05-27T21:39:28;7.27;;;3.93;;
15297;SDS011;7750;48.796;9.026;2023-05-27T21:44:30;6.97;;;3.93;;
15297;SDS011;7750;48.796;9.026;2023-05-27T21:49:30;9.60;;;4.00;;
15297;SDS011;7750;48.796;9.026;2023-05-27T21:54:31;8.97;;;4.63;;
15297;SDS011;7750;48.796;9.026;2023-05-27T21:59:32;8.23;;;3.97;;
15297;SDS011;7750;48.796;9.026;2023-05-27T22:04:33;9.23;;;4.00;;
15297;SDS011;7750;48.796;9.026;2023-05-27T22:09:34;9.80;;;4.07;;
15297;SDS011;7750;48.796;9.026;2023-05-27T22:14:35;6.80;;;3.93;;
15297;SDS011;7750;48.796;9.026;2023-05-27T22:19:36;8.07;;;4.60;;
15297;SDS011;7750;48.796;9.026;2023-05-27T22:24:37;6.90;;;4.10;;
15297;SDS011;7750;48.796;9.026;2023-05-27T22:29:38;10.70;;;4.47;;
15297;SDS011;7750;48.796;9.026;2023-05-27T22:34:38;14.90;;;4.53;;
15297;SDS011;7750;48.796;9.026;2023-05-27T22:39:39;7.63;;;3.50;;
15297;SDS011;7750;48.796;9.026;2023-05-27T22:44:40;7.57;;;4.50;;
15297;SDS011;7750;48.796;9.026;2023-05-27T22:49:40;12.63;;;3.83;;
15297;SDS011;7750;48.796;9.026;2023-05-27T22:54:41;5.77;;;4.10;;
15297;SDS011;7750;48.796;9.026;2023-05-27T22:59:41;7.73;;;3.97;;
15297;SDS011;7750;48.796;9.026;2023-05-27T23:04:42;6.50;;;4.30;;
15297;SDS011;7750;48.796;9.026;2023-05-27T23:09:43;5.60;;;3.90;;
15297;SDS011;7750;48.796;9.026;2023-05-27T23:14:43;8.10;;;4.00;;
15297;SDS011;7750;48.796;9.026;2023-05-27T23:19:44;6.23;;;3.70;;
15297;SDS011;7750;48.796;9.026;2023-05-27T23:24:44;8.83;;;4.30;;
15297;SDS011;7750;48.796;9.026;2023-05-27T23:29:45;9.20;;;5.00;;
15297;SDS011;7750;48.796;9.026;2023-05-27T23:34:46;13.73;;;4.83;;
15297;SDS011;7750;48.796;9.026;2023-05-27T23:39:46;10.90;;;5.13;;
15297;SDS011;7750;48.796;9.026;2023-05-27T23:44:47;8.93;;;5.00;;
15297;SDS011;7750;48.796;9.026;2023-05-27T23:49:47;7.27;;;4.70;;
15297;SDS011;7750;48.796;9.026;2023-05-27T23:54:48;11.03;;;4.40;;
15297;SDS011;7750;48.796;9.026;2023-05-27T23:59:49;12.13;;;4.83;;
